createdAt,value
2017-07-24T00:02:18.862Z,6.10
2017-07-24T00:04:45.617Z,7.20
2017-07-24T00:07:11.684Z,5.93
2017-07-24T00:09:37.717Z,5.70
2017-07-24T00:12:03.750Z,6.30
2017-07-24T00:14:29.777Z,5.70
2017-07-24T00:16:55.792Z,5.80
2017-07-24T00:19:21.833Z,6.60
2017-07-24T00:21:48.581Z,6.47
2017-07-24T00:24:14.592Z,6.03
2017-07-24T00:26:40.609Z,6.80
2017-07-24T00:29:06.682Z,7.30
2017-07-24T00:31:33.450Z,9.10
2017-07-24T00:33:59.490Z,8.27
2017-07-24T00:36:25.553Z,9.17
2017-07-24T00:38:51.566Z,8.07
2017-07-24T00:41:17.616Z,8.50
2017-07-24T00:43:43.684Z,8.93
2017-07-24T00:46:09.736Z,8.93
2017-07-24T00:48:35.767Z,9.10
2017-07-24T00:51:02.548Z,9.13
2017-07-24T00:53:28.561Z,9.00
2017-07-24T00:55:54.596Z,8.67
2017-07-24T00:58:20.630Z,8.23
2017-07-24T01:00:47.398Z,10.43
2017-07-24T01:03:13.474Z,9.10
2017-07-24T01:05:39.493Z,7.43
2017-07-24T01:08:05.534Z,8.13
2017-07-24T01:10:31.548Z,8.20
2017-07-24T01:12:57.585Z,7.10
2017-07-24T01:15:24.350Z,7.07
2017-07-24T01:17:50.394Z,6.97
2017-07-24T01:20:16.443Z,7.30
2017-07-24T01:22:43.248Z,5.80
2017-07-24T01:25:09.282Z,6.73
2017-07-24T01:27:35.303Z,6.17
2017-07-24T01:30:01.316Z,6.40
2017-07-24T01:32:27.356Z,5.13
2017-07-24T01:34:53.394Z,5.43
2017-07-24T01:37:19.418Z,5.60
2017-07-24T01:39:46.193Z,5.17
2017-07-24T01:42:12.240Z,5.87
2017-07-24T01:44:39.221Z,6.53
2017-07-24T01:47:05.269Z,6.50
2017-07-24T01:49:31.293Z,5.80
2017-07-24T01:51:58.068Z,6.23
2017-07-24T01:54:24.081Z,6.00
2017-07-24T01:56:50.113Z,6.40
2017-07-24T01:59:16.138Z,6.30
2017-07-24T02:01:42.258Z,5.30
2017-07-24T02:04:09.026Z,6.80
2017-07-24T02:06:35.032Z,5.90
2017-07-24T02:09:01.091Z,6.30
2017-07-24T02:11:27.119Z,6.80
2017-07-24T02:13:53.897Z,6.57
2017-07-24T02:16:19.936Z,6.50
2017-07-24T02:18:45.953Z,7.00
2017-07-24T02:21:12.697Z,6.93
2017-07-24T02:23:38.757Z,7.53
2017-07-24T02:26:04.803Z,7.93
2017-07-24T02:28:30.833Z,6.63
2017-07-24T02:30:56.880Z,7.00
2017-07-24T02:33:22.900Z,6.67
2017-07-24T02:35:48.929Z,8.37
2017-07-24T02:38:15.696Z,7.63
2017-07-24T02:40:41.713Z,8.10
2017-07-24T02:43:07.749Z,6.43
2017-07-24T02:45:33.786Z,6.60
2017-07-24T02:47:59.818Z,7.10
2017-07-24T02:50:25.865Z,6.60
2017-07-24T02:52:51.891Z,6.80
2017-07-24T02:55:17.938Z,6.73
2017-07-24T02:57:43.949Z,6.27
2017-07-24T03:00:09.968Z,5.80
2017-07-24T03:02:35.990Z,6.13
2017-07-24T03:05:02.025Z,6.47
2017-07-24T03:07:28.139Z,6.20
2017-07-24T03:09:54.249Z,6.10
2017-07-24T03:12:20.303Z,7.23
2017-07-24T03:14:46.336Z,6.17
2017-07-24T03:17:12.370Z,5.90
2017-07-24T03:19:38.381Z,5.60
2017-07-24T03:22:04.421Z,6.20
2017-07-24T03:24:37.389Z,6.03
2017-07-24T03:27:03.417Z,6.97
2017-07-24T03:29:29.424Z,6.37
2017-07-24T03:31:55.446Z,5.63
2017-07-24T03:34:21.461Z,6.10
2017-07-24T03:36:47.496Z,5.80
2017-07-24T03:39:13.522Z,5.10
2017-07-24T03:41:39.564Z,5.77
2017-07-24T03:44:05.590Z,6.50
2017-07-24T03:46:31.674Z,5.20
2017-07-24T03:48:57.709Z,5.37
2017-07-24T03:51:23.718Z,5.70
2017-07-24T03:53:49.737Z,7.90
2017-07-24T03:56:15.769Z,7.00
2017-07-24T03:58:41.820Z,6.63
2017-07-24T04:01:07.833Z,5.80
2017-07-24T04:03:33.897Z,5.73
2017-07-24T04:05:59.916Z,6.63
2017-07-24T04:08:25.953Z,6.73
2017-07-24T04:10:51.976Z,5.80
2017-07-24T04:13:18.132Z,7.40
2017-07-24T04:15:44.170Z,5.70
2017-07-24T04:18:10.980Z,6.77
2017-07-24T04:20:37.753Z,5.60
2017-07-24T04:23:03.767Z,5.97
2017-07-24T04:25:29.796Z,5.93
2017-07-24T04:27:55.937Z,6.30
2017-07-24T04:30:22.074Z,6.00
2017-07-24T04:32:48.116Z,5.80
2017-07-24T04:35:14.124Z,6.87
2017-07-24T04:37:40.180Z,5.83
2017-07-24T04:40:06.936Z,6.57
2017-07-24T04:42:32.954Z,7.80
2017-07-24T04:44:58.964Z,6.57
2017-07-24T04:47:25.004Z,7.37
2017-07-24T04:49:51.031Z,8.57
2017-07-24T04:52:17.067Z,8.87
2017-07-24T04:54:43.094Z,7.47
2017-07-24T04:57:09.110Z,8.77
2017-07-24T04:59:35.144Z,9.07
2017-07-24T05:02:01.185Z,9.53
2017-07-24T05:04:27.985Z,10.10
2017-07-24T05:06:54.010Z,9.70
2017-07-24T05:09:20.781Z,10.80
2017-07-24T05:11:46.793Z,10.50
2017-07-24T05:14:12.828Z,11.50
2017-07-24T05:16:40.850Z,10.23
2017-07-24T05:19:06.893Z,12.03
2017-07-24T05:21:32.942Z,10.50
2017-07-24T05:23:59.723Z,11.47
2017-07-24T05:26:25.775Z,10.07
2017-07-24T05:28:52.549Z,10.27
2017-07-24T05:31:18.584Z,10.30
2017-07-24T05:33:44.593Z,11.90
2017-07-24T05:36:10.616Z,9.73
2017-07-24T05:38:36.652Z,9.30
2017-07-24T05:41:02.726Z,10.77
2017-07-24T05:43:29.512Z,9.70
2017-07-24T05:45:55.655Z,10.10
2017-07-24T05:48:22.544Z,9.90
2017-07-24T05:50:48.566Z,9.60
2017-07-24T05:53:14.581Z,9.13
2017-07-24T05:55:40.597Z,9.57
2017-07-24T05:58:06.653Z,8.77
2017-07-24T06:00:32.674Z,10.20
2017-07-24T06:02:58.701Z,7.87
2017-07-24T06:05:24.734Z,7.80
2017-07-24T06:07:50.772Z,6.67
2017-07-24T06:10:17.534Z,6.30
2017-07-24T06:12:43.606Z,7.67
2017-07-24T06:15:10.370Z,8.50
2017-07-24T06:17:36.402Z,8.20
2017-07-24T06:20:02.462Z,7.70
2017-07-24T06:22:28.735Z,9.27
2017-07-24T06:24:54.928Z,9.80
2017-07-24T06:27:20.993Z,10.00
2017-07-24T06:29:47.776Z,9.50
2017-07-24T06:32:13.784Z,9.50
2017-07-24T06:34:39.824Z,9.03
2017-07-24T06:37:05.836Z,8.27
2017-07-24T06:39:32.632Z,9.43
2017-07-24T06:41:58.657Z,9.20
2017-07-24T06:44:24.692Z,9.33
2017-07-24T06:46:50.713Z,9.43
2017-07-24T06:49:16.730Z,9.13
2017-07-24T06:51:42.753Z,8.97
2017-07-24T06:54:08.768Z,8.43
2017-07-24T06:56:34.780Z,9.30
2017-07-24T06:59:00.784Z,9.70
2017-07-24T07:01:26.801Z,9.10
2017-07-24T07:03:52.822Z,9.57
2017-07-24T07:06:18.844Z,9.17
2017-07-24T07:08:44.866Z,8.40
2017-07-24T07:11:10.864Z,10.83
2017-07-24T07:13:36.896Z,9.40
2017-07-24T07:16:03.668Z,8.40
2017-07-24T07:18:29.715Z,8.17
2017-07-24T07:20:56.473Z,8.00
2017-07-24T07:23:22.485Z,9.00
2017-07-24T07:25:48.505Z,9.20
2017-07-24T07:28:14.559Z,8.80
2017-07-24T07:30:41.331Z,7.87
2017-07-24T07:33:07.336Z,7.23
2017-07-24T07:35:33.362Z,8.40
2017-07-24T07:37:59.390Z,7.50
2017-07-24T07:40:26.173Z,7.57
2017-07-24T07:42:52.192Z,4.87
2017-07-24T07:45:18.219Z,5.10
2017-07-24T07:47:44.244Z,5.50
2017-07-24T07:50:10.278Z,4.87
2017-07-24T07:52:37.057Z,4.60
2017-07-24T07:55:03.101Z,5.33
2017-07-24T07:57:29.127Z,5.80
2017-07-24T07:59:55.133Z,4.40
2017-07-24T08:02:21.188Z,3.80
2017-07-24T08:04:47.206Z,5.50
2017-07-24T08:07:13.226Z,5.57
2017-07-24T08:09:39.237Z,5.47
2017-07-24T08:12:05.278Z,4.97
2017-07-24T08:14:32.050Z,4.00
2017-07-24T08:16:58.078Z,3.53
2017-07-24T08:19:24.109Z,2.87
2017-07-24T08:21:50.157Z,4.60
2017-07-24T08:24:16.170Z,3.10
2017-07-24T08:26:42.221Z,3.50
2017-07-24T08:29:08.241Z,3.67
2017-07-24T08:31:34.258Z,3.53
2017-07-24T08:34:01.028Z,3.87
2017-07-24T08:36:27.084Z,4.10
2017-07-24T08:38:53.850Z,4.10
2017-07-24T08:41:19.876Z,3.40
2017-07-24T08:43:45.924Z,4.30
2017-07-24T08:46:11.953Z,4.50
2017-07-24T08:48:37.961Z,5.17
2017-07-24T08:51:04.140Z,4.77
2017-07-24T08:53:30.165Z,3.77
2017-07-24T08:55:56.920Z,5.53
2017-07-24T08:58:22.972Z,4.10
2017-07-24T09:00:48.992Z,3.13
2017-07-24T09:03:15.001Z,4.03
2017-07-24T09:05:41.037Z,3.60
2017-07-24T09:08:07.802Z,4.17
2017-07-24T09:10:35.600Z,3.20
2017-07-24T09:13:03.396Z,3.00
2017-07-24T09:15:31.191Z,2.93
2017-07-24T09:17:58.989Z,2.40
2017-07-24T09:20:26.807Z,4.20
2017-07-24T09:22:54.623Z,3.57
2017-07-24T09:25:22.416Z,3.40
2017-07-24T09:27:50.228Z,3.50
2017-07-24T09:30:18.035Z,2.90
2017-07-24T09:32:45.841Z,3.80
2017-07-24T09:35:13.628Z,3.13
2017-07-24T09:37:41.416Z,3.13
2017-07-24T09:40:09.224Z,3.50
2017-07-24T09:42:37.048Z,3.33
2017-07-24T09:45:04.840Z,3.47
2017-07-24T09:47:30.861Z,3.50
2017-07-24T09:49:58.671Z,3.20
2017-07-24T09:52:24.693Z,3.40
2017-07-24T09:54:52.508Z,2.90
2017-07-24T09:57:20.336Z,3.40
2017-07-24T09:59:48.134Z,2.23
2017-07-24T10:02:15.955Z,1.47
2017-07-24T10:04:42.344Z,2.10
2017-07-24T10:07:09.116Z,1.50
2017-07-24T10:09:35.164Z,2.30
2017-07-24T10:12:01.934Z,2.47
2017-07-24T10:14:27.965Z,2.13
2017-07-24T10:16:55.768Z,2.60
2017-07-24T10:19:23.552Z,3.20
2017-07-24T10:21:56.532Z,1.90
2017-07-24T10:24:22.581Z,1.97
2017-07-24T10:26:49.354Z,2.57
2017-07-24T10:29:15.380Z,3.27
2017-07-24T10:31:41.401Z,2.23
2017-07-24T10:34:07.422Z,2.20
2017-07-24T10:36:33.437Z,3.57
2017-07-24T10:39:00.200Z,2.20
2017-07-24T10:41:26.221Z,2.70
2017-07-24T10:43:52.239Z,2.33
2017-07-24T10:46:18.278Z,2.70
2017-07-24T10:48:44.293Z,2.10
2017-07-24T10:51:11.065Z,2.53
2017-07-24T10:53:37.081Z,2.50
2017-07-24T10:56:03.109Z,2.20
2017-07-24T10:58:29.145Z,2.13
2017-07-24T11:00:55.188Z,2.67
2017-07-24T11:03:21.236Z,2.63
2017-07-24T11:05:47.248Z,2.60
2017-07-24T11:08:13.264Z,2.57
2017-07-24T11:10:39.287Z,2.20
2017-07-24T11:13:06.087Z,2.57
2017-07-24T11:15:32.118Z,2.67
2017-07-24T11:17:58.150Z,2.63
2017-07-24T11:20:24.175Z,2.60
2017-07-24T11:22:50.213Z,3.17
2017-07-24T11:25:16.221Z,2.70
2017-07-24T11:27:42.272Z,2.50
2017-07-24T11:30:09.048Z,2.40
2017-07-24T11:32:35.088Z,2.77
2017-07-24T11:35:01.105Z,2.73
2017-07-24T11:37:27.869Z,2.60
2017-07-24T11:39:53.901Z,3.17
2017-07-24T11:42:19.912Z,2.77
2017-07-24T11:44:45.928Z,2.23
2017-07-24T11:47:11.968Z,2.70
2017-07-24T11:49:38.741Z,7.50
2017-07-24T11:52:04.756Z,4.73
2017-07-24T11:54:30.793Z,3.70
2017-07-24T11:56:56.820Z,2.83
2017-07-24T11:59:23.596Z,3.00
2017-07-24T12:01:49.648Z,3.20
2017-07-24T12:04:15.665Z,2.53
2017-07-24T12:06:42.432Z,2.57
2017-07-24T12:09:08.455Z,3.17
2017-07-24T12:11:34.490Z,2.80
2017-07-24T12:14:00.505Z,3.43
2017-07-24T12:16:26.536Z,3.50
2017-07-24T12:18:52.565Z,3.00
2017-07-24T12:21:18.640Z,2.70
2017-07-24T12:23:45.397Z,3.27
2017-07-24T12:26:11.422Z,3.30
2017-07-24T12:28:37.449Z,3.70
2017-07-24T12:31:03.464Z,3.73
2017-07-24T12:33:29.500Z,3.00
2017-07-24T12:35:56.254Z,3.23
2017-07-24T12:38:22.277Z,3.43
2017-07-24T12:40:48.290Z,3.40
2017-07-24T12:43:14.316Z,3.10
2017-07-24T12:45:40.337Z,3.30
2017-07-24T12:48:06.371Z,3.03
2017-07-24T12:50:33.134Z,3.20
2017-07-24T12:52:59.959Z,3.70
2017-07-24T12:55:25.968Z,4.00
2017-07-24T12:57:52.004Z,3.27
2017-07-24T13:00:18.036Z,4.70
2017-07-24T13:02:44.048Z,5.33
2017-07-24T13:05:10.817Z,5.57
2017-07-24T13:07:36.831Z,5.10
2017-07-24T13:10:02.888Z,4.97
2017-07-24T13:12:28.912Z,5.17
2017-07-24T13:14:55.696Z,4.47
2017-07-24T13:17:21.725Z,4.70
2017-07-24T13:19:47.741Z,3.80
2017-07-24T13:22:14.564Z,4.93
2017-07-24T13:24:40.590Z,4.50
2017-07-24T13:27:07.342Z,4.40
2017-07-24T13:29:33.400Z,4.23
2017-07-24T13:31:59.437Z,4.63
2017-07-24T13:34:25.474Z,4.17
2017-07-24T13:36:51.485Z,4.50
2017-07-24T13:39:17.505Z,3.80
2017-07-24T13:41:43.529Z,4.67
2017-07-24T13:44:09.545Z,3.57
2017-07-24T13:46:35.600Z,4.03
2017-07-24T13:49:01.622Z,3.87
2017-07-24T13:51:27.649Z,3.97
2017-07-24T13:53:53.658Z,3.20
2017-07-24T13:56:19.674Z,4.20
2017-07-24T13:58:45.706Z,4.67
2017-07-24T14:01:11.745Z,4.33
2017-07-24T14:03:37.789Z,3.97
2017-07-24T14:06:03.813Z,4.03
2017-07-24T14:08:29.852Z,4.33
2017-07-24T14:10:55.866Z,4.60
2017-07-24T14:13:22.010Z,4.37
2017-07-24T14:15:48.055Z,4.30
2017-07-24T14:18:14.075Z,6.10
2017-07-24T14:20:40.099Z,3.90
2017-07-24T14:23:06.860Z,4.17
2017-07-24T14:25:32.868Z,4.17
2017-07-24T14:27:58.889Z,4.20
2017-07-24T14:30:24.889Z,4.40
2017-07-24T14:32:50.909Z,4.70
2017-07-24T14:35:16.939Z,4.23
2017-07-24T14:37:42.972Z,4.50
2017-07-24T14:40:09.736Z,4.57
2017-07-24T14:42:35.766Z,3.83
2017-07-24T14:45:01.797Z,4.57
2017-07-24T14:47:27.820Z,4.20
2017-07-24T14:49:53.845Z,5.00
2017-07-24T14:52:20.600Z,4.23
2017-07-24T14:54:46.636Z,4.93
2017-07-24T14:57:12.651Z,4.93
2017-07-24T14:59:38.679Z,4.90
2017-07-24T15:02:04.698Z,5.90
2017-07-24T15:04:30.710Z,6.00
2017-07-24T15:06:56.816Z,5.93
2017-07-24T15:09:23.565Z,5.67
2017-07-24T15:11:49.590Z,5.70
2017-07-24T15:14:15.624Z,5.53
2017-07-24T15:16:41.656Z,6.33
2017-07-24T15:19:07.685Z,4.93
2017-07-24T15:21:33.753Z,5.73
2017-07-24T15:23:59.777Z,5.63
2017-07-24T15:26:25.785Z,5.47
2017-07-24T15:28:51.821Z,6.00
2017-07-24T15:31:17.825Z,5.57
2017-07-24T15:33:44.589Z,6.10
2017-07-24T15:36:10.604Z,6.30
2017-07-24T15:38:36.638Z,6.73
2017-07-24T15:41:02.670Z,6.30
2017-07-24T15:43:29.455Z,5.97
2017-07-24T15:45:55.495Z,7.13
2017-07-24T15:48:22.280Z,7.10
2017-07-24T15:50:48.301Z,7.17
2017-07-24T15:53:14.325Z,7.40
2017-07-24T15:55:40.376Z,6.57
2017-07-24T15:58:06.400Z,8.70
2017-07-24T16:00:32.730Z,7.50
2017-07-24T16:02:58.844Z,6.63
2017-07-24T16:05:24.869Z,6.60
2017-07-24T16:07:50.903Z,7.10
2017-07-24T16:10:16.926Z,8.10
2017-07-24T16:12:43.692Z,8.00
2017-07-24T16:15:09.737Z,9.67
2017-07-24T16:17:35.832Z,11.03
2017-07-24T16:20:01.865Z,11.20
2017-07-24T16:22:28.667Z,12.50
2017-07-24T16:24:55.444Z,13.37
2017-07-24T16:27:21.465Z,17.87
2017-07-24T16:29:47.490Z,16.03
2017-07-24T16:32:13.514Z,18.10
2017-07-24T16:34:39.592Z,19.47
2017-07-24T16:37:05.645Z,19.60
2017-07-24T16:39:31.670Z,15.27
2017-07-24T16:41:58.436Z,19.37
2017-07-24T16:44:24.449Z,24.03
2017-07-24T16:46:50.495Z,25.27
2017-07-24T16:49:17.266Z,23.10
2017-07-24T16:51:43.289Z,17.80
2017-07-24T16:54:09.325Z,15.27
2017-07-24T16:56:35.368Z,18.03
2017-07-24T16:59:01.404Z,20.20
2017-07-24T17:01:27.412Z,19.87
2017-07-24T17:03:53.504Z,20.73
2017-07-24T17:06:19.525Z,21.20
2017-07-24T17:08:45.547Z,16.60
2017-07-24T17:11:11.566Z,14.97
2017-07-24T17:13:37.603Z,14.90
2017-07-24T17:16:03.642Z,16.13
2017-07-24T17:18:30.414Z,17.43
2017-07-24T17:20:56.571Z,16.10
2017-07-24T17:23:23.329Z,16.50
2017-07-24T17:25:49.355Z,15.83
2017-07-24T17:28:15.382Z,17.00
2017-07-24T17:30:41.418Z,16.77
2017-07-24T17:33:08.184Z,17.97
2017-07-24T17:35:34.282Z,17.10
2017-07-24T17:38:00.308Z,19.40
2017-07-24T17:40:26.326Z,17.43
2017-07-24T17:42:52.340Z,18.20
2017-07-24T17:45:18.354Z,16.93
2017-07-24T17:47:44.378Z,18.50
2017-07-24T17:50:10.402Z,18.60
2017-07-24T17:52:36.417Z,19.67
2017-07-24T17:55:02.443Z,19.10
2017-07-24T17:57:28.541Z,19.57
2017-07-24T18:00:01.412Z,20.90
2017-07-24T18:02:28.183Z,21.27
2017-07-24T18:04:54.214Z,20.70
2017-07-24T18:07:20.224Z,19.40
2017-07-24T18:09:46.244Z,22.13
2017-07-24T18:12:12.271Z,21.57
2017-07-24T18:14:39.076Z,22.43
2017-07-24T18:17:05.091Z,23.57
2017-07-24T18:19:31.155Z,23.10
2017-07-24T18:21:57.192Z,22.33
2017-07-24T18:24:23.238Z,23.27
2017-07-24T18:26:49.997Z,22.70
2017-07-24T18:29:16.006Z,21.13
2017-07-24T18:31:42.050Z,22.57
2017-07-24T18:34:08.162Z,24.17
2017-07-24T18:36:34.190Z,23.27
2017-07-24T18:39:00.216Z,23.07
2017-07-24T18:41:26.254Z,25.90
2017-07-24T18:43:52.265Z,22.70
2017-07-24T18:46:18.303Z,24.00
2017-07-24T18:48:44.334Z,21.60
2017-07-24T18:51:10.355Z,21.63
2017-07-24T18:53:36.376Z,20.67
2017-07-24T18:56:02.420Z,21.57
2017-07-24T18:58:28.449Z,22.17
2017-07-24T19:00:54.482Z,20.07
2017-07-24T19:03:20.528Z,21.20
2017-07-24T19:05:46.646Z,21.30
2017-07-24T19:08:12.692Z,22.40
2017-07-24T19:10:38.796Z,22.10
2017-07-24T19:13:04.837Z,21.77
2017-07-24T19:15:30.868Z,20.97
2017-07-24T19:17:56.917Z,20.53
2017-07-24T19:20:22.934Z,22.20
2017-07-24T19:22:48.972Z,21.27
2017-07-24T19:25:15.056Z,21.30
2017-07-24T19:27:41.070Z,21.70
2017-07-24T19:30:07.916Z,21.43
2017-07-24T19:32:33.938Z,20.50
2017-07-24T19:34:59.952Z,24.03
2017-07-24T19:37:25.972Z,22.43
2017-07-24T19:39:51.996Z,24.53
2017-07-24T19:42:18.018Z,21.13
2017-07-24T19:44:44.227Z,22.67
2017-07-24T19:47:10.244Z,25.17
2017-07-24T19:49:36.419Z,23.67
2017-07-24T19:52:03.268Z,23.93
2017-07-24T19:54:29.293Z,24.23
2017-07-24T19:56:55.353Z,24.63
2017-07-24T19:59:21.369Z,22.90
2017-07-24T20:01:47.424Z,23.77
2017-07-24T20:04:13.436Z,25.00
2017-07-24T20:06:39.478Z,25.60
2017-07-24T20:09:06.325Z,25.00
2017-07-24T20:11:47.351Z,23.60
2017-07-24T20:14:13.377Z,23.97
2017-07-24T20:16:39.428Z,23.77
2017-07-24T20:19:05.472Z,22.97
2017-07-24T20:21:32.224Z,23.07
2017-07-24T20:23:58.273Z,22.90
2017-07-24T20:26:24.294Z,22.37
2017-07-24T20:28:50.328Z,22.07
2017-07-24T20:31:16.404Z,23.53
2017-07-24T20:33:42.549Z,25.00
2017-07-24T20:36:09.320Z,23.97
2017-07-24T20:38:35.340Z,24.40
2017-07-24T20:41:01.388Z,23.97
2017-07-24T20:43:28.157Z,23.63
2017-07-24T20:45:54.192Z,25.17
2017-07-24T20:48:20.208Z,25.07
2017-07-24T20:50:46.229Z,25.70
2017-07-24T20:53:13.017Z,24.90
2017-07-24T20:55:39.028Z,27.27
2017-07-24T20:58:05.042Z,26.47
2017-07-24T21:00:31.068Z,26.50
2017-07-24T21:02:57.113Z,24.80
2017-07-24T21:05:23.140Z,25.90
2017-07-24T21:07:49.184Z,27.67
2017-07-24T21:10:15.225Z,27.47
2017-07-24T21:12:41.285Z,30.80
2017-07-24T21:15:07.330Z,27.37
2017-07-24T21:17:33.354Z,27.47
2017-07-24T21:20:00.133Z,27.27
2017-07-24T21:22:26.162Z,29.20
2017-07-24T21:24:52.187Z,29.97
2017-07-24T21:27:18.954Z,30.83
2017-07-24T21:29:45.008Z,29.03
2017-07-24T21:32:11.779Z,28.80
2017-07-24T21:34:37.818Z,28.50
2017-07-24T21:37:03.855Z,28.13
2017-07-24T21:39:33.672Z,27.50
2017-07-24T21:41:59.701Z,27.23
2017-07-24T21:44:25.741Z,27.27
2017-07-24T21:46:51.784Z,25.40
2017-07-24T21:49:18.554Z,25.57
2017-07-24T21:51:44.572Z,27.07
2017-07-24T21:54:10.589Z,25.60
2017-07-24T21:56:36.632Z,26.53
2017-07-24T21:59:03.398Z,25.40
2017-07-24T22:01:29.428Z,25.37
2017-07-24T22:03:55.505Z,25.23
2017-07-24T22:06:21.533Z,24.73
2017-07-24T22:08:47.546Z,25.90
2017-07-24T22:11:13.578Z,24.83
2017-07-24T22:13:39.588Z,25.13
2017-07-24T22:16:05.648Z,25.47
2017-07-24T22:18:31.667Z,25.87
2017-07-24T22:20:57.685Z,23.33
2017-07-24T22:23:23.718Z,22.83
2017-07-24T22:25:49.761Z,22.40
2017-07-24T22:28:16.525Z,21.10
2017-07-24T22:30:42.528Z,22.97
2017-07-24T22:33:08.569Z,19.77
2017-07-24T22:35:34.592Z,21.10
2017-07-24T22:38:00.646Z,19.40
2017-07-24T22:40:26.709Z,20.37
2017-07-24T22:42:52.732Z,20.37
2017-07-24T22:45:19.480Z,21.87
2017-07-24T22:47:45.499Z,19.97
2017-07-24T22:50:11.535Z,20.23
2017-07-24T22:52:37.577Z,20.50
2017-07-24T22:55:03.598Z,20.70
2017-07-24T22:57:30.356Z,18.20
2017-07-24T22:59:56.400Z,19.63
2017-07-24T23:02:22.444Z,19.17
2017-07-24T23:04:48.449Z,18.93
2017-07-24T23:07:15.210Z,18.53
2017-07-24T23:09:41.247Z,20.00
2017-07-24T23:12:09.040Z,20.30
2017-07-24T23:14:36.844Z,18.83
2017-07-24T23:17:04.636Z,17.20
2017-07-24T23:19:32.436Z,16.43
2017-07-24T23:22:00.236Z,17.00
2017-07-24T23:24:28.026Z,17.47
2017-07-24T23:26:55.828Z,17.37
2017-07-24T23:29:23.657Z,16.67
2017-07-24T23:31:51.459Z,14.50
2017-07-24T23:34:19.276Z,16.23
2017-07-24T23:36:47.084Z,16.10
2017-07-24T23:39:14.895Z,15.03
2017-07-24T23:41:42.704Z,14.57
2017-07-24T23:44:10.489Z,15.07
2017-07-24T23:46:38.288Z,15.00
2017-07-24T23:49:06.096Z,14.27
2017-07-24T23:51:33.892Z,15.10
2017-07-24T23:54:01.688Z,14.70
2017-07-24T23:56:29.485Z,13.10
2017-07-24T23:58:57.275Z,12.90
